Williston Park, New York
Current Conditions -  °F | °C
As of 12:51 AM on Wednesday 22 Oct 2014 (Local Time) from KJFK Reporting Station
Overcast Overcast  
Wind Chill: 14°   Ceiling: 8000
Heat Index: 14°   Visibility: 10mi
Dew Point: 12°   Wind: 9mph
Humidity: 84%   Direction: 30°NNE
Pressure: 29.9"   Gusts: NA
Location:  40.76°N, 73.64°W
Report Text: KJFK 220451Z 03008KT 10SM FEW012 BKN080 OVC200 14/12 A2990 RMK AO2 SLP124 T01440117 401940117 $
Loading
Personal Weather Stations






























Interactive Weather Map
Tropical Storm Tracking
New forecast layout! Learn more

10-Day Weather Forecast

Advertisements
Track Severe Weather on mobile